sensor_id;sensor_type;location;lat;lon;timestamp;P1;durP1;ratioP1;P2;durP2;ratioP2
56122;SDS011;42426;46.104;19.656;2023-01-28T00:01:05;36.22;;;18.30;;
56122;SDS011;42426;46.104;19.656;2023-01-28T00:03:31;31.40;;;17.67;;
56122;SDS011;42426;46.104;19.656;2023-01-28T00:06:01;31.90;;;18.50;;
56122;SDS011;42426;46.104;19.656;2023-01-28T00:08:28;36.80;;;18.63;;
56122;SDS011;42426;46.104;19.656;2023-01-28T00:10:56;32.67;;;18.10;;
56122;SDS011;42426;46.104;19.656;2023-01-28T00:13:23;30.88;;;17.65;;
56122;SDS011;42426;46.104;19.656;2023-01-28T00:15:53;31.92;;;18.70;;
56122;SDS011;42426;46.104;19.656;2023-01-28T00:18:28;35.55;;;18.10;;
56122;SDS011;42426;46.104;19.656;2023-01-28T00:20:58;40.30;;;17.85;;
56122;SDS011;42426;46.104;19.656;2023-01-28T00:23:29;31.95;;;17.85;;
56122;SDS011;42426;46.104;19.656;2023-01-28T00:25:58;31.88;;;18.48;;
56122;SDS011;42426;46.104;19.656;2023-01-28T00:28:24;32.13;;;18.92;;
56122;SDS011;42426;46.104;19.656;2023-01-28T00:30:50;30.70;;;17.67;;
56122;SDS011;42426;46.104;19.656;2023-01-28T00:33:16;30.38;;;17.75;;
56122;SDS011;42426;46.104;19.656;2023-01-28T00:35:42;27.88;;;17.27;;
56122;SDS011;42426;46.104;19.656;2023-01-28T00:38:07;35.00;;;17.13;;
56122;SDS011;42426;46.104;19.656;2023-01-28T00:40:34;30.48;;;17.55;;
56122;SDS011;42426;46.104;19.656;2023-01-28T00:43:00;28.67;;;16.35;;
56122;SDS011;42426;46.104;19.656;2023-01-28T00:45:26;33.85;;;17.35;;
56122;SDS011;42426;46.104;19.656;2023-01-28T00:47:52;30.23;;;17.63;;
56122;SDS011;42426;46.104;19.656;2023-01-28T00:50:18;34.20;;;18.05;;
56122;SDS011;42426;46.104;19.656;2023-01-28T00:52:45;29.73;;;17.65;;
56122;SDS011;42426;46.104;19.656;2023-01-28T00:55:11;29.58;;;16.85;;
56122;SDS011;42426;46.104;19.656;2023-01-28T00:57:37;30.15;;;17.00;;
56122;SDS011;42426;46.104;19.656;2023-01-28T01:00:03;32.05;;;16.92;;
56122;SDS011;42426;46.104;19.656;2023-01-28T01:02:30;32.53;;;17.63;;
56122;SDS011;42426;46.104;19.656;2023-01-28T01:04:56;29.42;;;16.90;;
56122;SDS011;42426;46.104;19.656;2023-01-28T01:07:26;34.00;;;16.98;;
56122;SDS011;42426;46.104;19.656;2023-01-28T01:09:59;34.80;;;17.73;;
56122;SDS011;42426;46.104;19.656;2023-01-28T01:12:28;36.30;;;19.10;;
56122;SDS011;42426;46.104;19.656;2023-01-28T01:14:54;31.65;;;17.98;;
56122;SDS011;42426;46.104;19.656;2023-01-28T01:17:20;29.92;;;15.88;;
56122;SDS011;42426;46.104;19.656;2023-01-28T01:19:46;36.05;;;18.13;;
56122;SDS011;42426;46.104;19.656;2023-01-28T01:22:12;30.95;;;17.27;;
56122;SDS011;42426;46.104;19.656;2023-01-28T01:24:37;30.88;;;16.50;;
56122;SDS011;42426;46.104;19.656;2023-01-28T01:27:03;28.83;;;18.25;;
56122;SDS011;42426;46.104;19.656;2023-01-28T01:29:30;35.13;;;17.30;;
56122;SDS011;42426;46.104;19.656;2023-01-28T01:31:57;35.63;;;18.55;;
56122;SDS011;42426;46.104;19.656;2023-01-28T01:34:23;32.78;;;18.80;;
56122;SDS011;42426;46.104;19.656;2023-01-28T01:36:49;35.22;;;20.67;;
56122;SDS011;42426;46.104;19.656;2023-01-28T01:39:15;30.38;;;17.35;;
56122;SDS011;42426;46.104;19.656;2023-01-28T01:41:41;37.53;;;19.40;;
56122;SDS011;42426;46.104;19.656;2023-01-28T01:44:46;33.60;;;17.85;;
56122;SDS011;42426;46.104;19.656;2023-01-28T01:47:11;35.88;;;17.50;;
56122;SDS011;42426;46.104;19.656;2023-01-28T01:49:38;29.90;;;17.23;;
56122;SDS011;42426;46.104;19.656;2023-01-28T01:52:06;28.30;;;17.17;;
56122;SDS011;42426;46.104;19.656;2023-01-28T01:54:37;30.17;;;16.50;;
56122;SDS011;42426;46.104;19.656;2023-01-28T01:57:07;28.52;;;16.02;;
56122;SDS011;42426;46.104;19.656;2023-01-28T01:59:37;36.67;;;20.20;;
56122;SDS011;42426;46.104;19.656;2023-01-28T02:02:04;32.10;;;17.05;;
56122;SDS011;42426;46.104;19.656;2023-01-28T02:04:34;34.95;;;17.83;;
56122;SDS011;42426;46.104;19.656;2023-01-28T02:07:08;31.13;;;17.05;;
56122;SDS011;42426;46.104;19.656;2023-01-28T02:09:35;36.00;;;19.45;;
56122;SDS011;42426;46.104;19.656;2023-01-28T02:12:13;29.27;;;17.00;;
56122;SDS011;42426;46.104;19.656;2023-01-28T02:14:47;35.42;;;19.40;;
56122;SDS011;42426;46.104;19.656;2023-01-28T02:17:23;32.75;;;17.98;;
56122;SDS011;42426;46.104;19.656;2023-01-28T02:30:28;32.25;;;17.25;;
56122;SDS011;42426;46.104;19.656;2023-01-28T02:33:01;30.08;;;15.82;;
56122;SDS011;42426;46.104;19.656;2023-01-28T02:35:34;25.65;;;16.25;;
56122;SDS011;42426;46.104;19.656;2023-01-28T02:38:17;33.63;;;17.98;;
56122;SDS011;42426;46.104;19.656;2023-01-28T02:40:51;35.25;;;17.35;;
56122;SDS011;42426;46.104;19.656;2023-01-28T02:45:55;29.50;;;17.25;;
56122;SDS011;42426;46.104;19.656;2023-01-28T02:48:39;27.73;;;16.25;;
56122;SDS011;42426;46.104;19.656;2023-01-28T02:51:28;33.22;;;17.95;;
56122;SDS011;42426;46.104;19.656;2023-01-28T02:54:37;34.20;;;17.90;;
56122;SDS011;42426;46.104;19.656;2023-01-28T03:02:45;34.13;;;17.80;;
56122;SDS011;42426;46.104;19.656;2023-01-28T03:05:34;29.85;;;17.80;;
56122;SDS011;42426;46.104;19.656;2023-01-28T03:08:02;31.95;;;17.98;;
56122;SDS011;42426;46.104;19.656;2023-01-28T03:10:49;31.00;;;17.88;;
56122;SDS011;42426;46.104;19.656;2023-01-28T03:13:35;29.55;;;15.88;;
56122;SDS011;42426;46.104;19.656;2023-01-28T03:16:21;32.13;;;16.35;;
56122;SDS011;42426;46.104;19.656;2023-01-28T03:19:05;34.00;;;17.70;;
56122;SDS011;42426;46.104;19.656;2023-01-28T03:21:51;30.42;;;17.45;;
56122;SDS011;42426;46.104;19.656;2023-01-28T03:24:37;30.85;;;18.08;;
56122;SDS011;42426;46.104;19.656;2023-01-28T03:33:27;35.53;;;18.02;;
56122;SDS011;42426;46.104;19.656;2023-01-28T03:36:14;31.88;;;17.13;;
56122;SDS011;42426;46.104;19.656;2023-01-28T03:38:59;33.70;;;17.65;;
56122;SDS011;42426;46.104;19.656;2023-01-28T03:41:25;36.72;;;19.17;;
56122;SDS011;42426;46.104;19.656;2023-01-28T03:43:51;33.80;;;18.38;;
56122;SDS011;42426;46.104;19.656;2023-01-28T03:46:17;31.90;;;18.70;;
56122;SDS011;42426;46.104;19.656;2023-01-28T03:48:43;35.45;;;18.33;;
56122;SDS011;42426;46.104;19.656;2023-01-28T03:51:10;32.90;;;18.88;;
56122;SDS011;42426;46.104;19.656;2023-01-28T03:53:36;38.08;;;19.23;;
56122;SDS011;42426;46.104;19.656;2023-01-28T03:56:03;31.58;;;16.58;;
56122;SDS011;42426;46.104;19.656;2023-01-28T03:58:29;31.30;;;17.10;;
56122;SDS011;42426;46.104;19.656;2023-01-28T04:01:11;36.83;;;18.38;;
56122;SDS011;42426;46.104;19.656;2023-01-28T04:03:37;31.42;;;18.40;;
56122;SDS011;42426;46.104;19.656;2023-01-28T04:06:04;33.40;;;19.08;;
56122;SDS011;42426;46.104;19.656;2023-01-28T04:08:31;35.67;;;19.30;;
56122;SDS011;42426;46.104;19.656;2023-01-28T04:10:57;35.28;;;17.92;;
56122;SDS011;42426;46.104;19.656;2023-01-28T04:13:39;39.28;;;20.83;;
56122;SDS011;42426;46.104;19.656;2023-01-28T04:16:05;37.95;;;19.77;;
56122;SDS011;42426;46.104;19.656;2023-01-28T04:18:32;37.72;;;18.88;;
56122;SDS011;42426;46.104;19.656;2023-01-28T04:20:59;37.30;;;18.83;;
56122;SDS011;42426;46.104;19.656;2023-01-28T04:23:24;38.67;;;21.73;;
56122;SDS011;42426;46.104;19.656;2023-01-28T04:25:50;38.53;;;20.52;;
56122;SDS011;42426;46.104;19.656;2023-01-28T04:28:16;38.08;;;19.27;;
56122;SDS011;42426;46.104;19.656;2023-01-28T04:30:42;35.85;;;20.35;;
56122;SDS011;42426;46.104;19.656;2023-01-28T04:33:08;37.92;;;21.60;;
56122;SDS011;42426;46.104;19.656;2023-01-28T04:35:35;39.45;;;22.55;;
56122;SDS011;42426;46.104;19.656;2023-01-28T04:38:01;42.80;;;20.88;;
56122;SDS011;42426;46.104;19.656;2023-01-28T04:40:26;40.30;;;21.75;;
56122;SDS011;42426;46.104;19.656;2023-01-28T04:42:53;35.55;;;20.73;;
56122;SDS011;42426;46.104;19.656;2023-01-28T04:45:19;38.53;;;19.90;;
56122;SDS011;42426;46.104;19.656;2023-01-28T04:47:45;40.20;;;20.67;;
56122;SDS011;42426;46.104;19.656;2023-01-28T04:50:11;39.25;;;22.25;;
56122;SDS011;42426;46.104;19.656;2023-01-28T04:52:36;36.33;;;18.88;;
56122;SDS011;42426;46.104;19.656;2023-01-28T04:55:02;36.88;;;20.25;;
56122;SDS011;42426;46.104;19.656;2023-01-28T04:57:28;41.10;;;22.30;;
56122;SDS011;42426;46.104;19.656;2023-01-28T04:59:54;40.30;;;22.88;;
56122;SDS011;42426;46.104;19.656;2023-01-28T05:02:19;40.72;;;21.48;;
56122;SDS011;42426;46.104;19.656;2023-01-28T05:04:45;49.75;;;25.13;;
56122;SDS011;42426;46.104;19.656;2023-01-28T05:07:11;41.42;;;22.80;;
56122;SDS011;42426;46.104;19.656;2023-01-28T05:09:37;42.97;;;22.80;;
56122;SDS011;42426;46.104;19.656;2023-01-28T05:12:03;41.45;;;21.45;;
56122;SDS011;42426;46.104;19.656;2023-01-28T05:14:28;42.05;;;22.35;;
56122;SDS011;42426;46.104;19.656;2023-01-28T05:16:54;39.80;;;21.70;;
56122;SDS011;42426;46.104;19.656;2023-01-28T05:19:20;37.53;;;21.13;;
56122;SDS011;42426;46.104;19.656;2023-01-28T05:21:46;38.45;;;21.27;;
56122;SDS011;42426;46.104;19.656;2023-01-28T05:24:11;38.63;;;20.60;;
56122;SDS011;42426;46.104;19.656;2023-01-28T05:26:37;41.17;;;21.45;;
56122;SDS011;42426;46.104;19.656;2023-01-28T05:29:03;42.35;;;21.67;;
56122;SDS011;42426;46.104;19.656;2023-01-28T05:31:28;37.20;;;19.75;;
56122;SDS011;42426;46.104;19.656;2023-01-28T05:33:54;35.72;;;22.52;;
56122;SDS011;42426;46.104;19.656;2023-01-28T05:36:20;39.33;;;21.73;;
56122;SDS011;42426;46.104;19.656;2023-01-28T05:38:45;41.47;;;21.38;;
56122;SDS011;42426;46.104;19.656;2023-01-28T05:41:11;36.85;;;20.27;;
56122;SDS011;42426;46.104;19.656;2023-01-28T05:43:37;39.95;;;21.48;;
56122;SDS011;42426;46.104;19.656;2023-01-28T05:46:02;43.88;;;21.67;;
56122;SDS011;42426;46.104;19.656;2023-01-28T05:48:28;43.17;;;20.73;;
56122;SDS011;42426;46.104;19.656;2023-01-28T05:50:54;39.95;;;22.63;;
56122;SDS011;42426;46.104;19.656;2023-01-28T05:53:20;41.35;;;22.15;;
56122;SDS011;42426;46.104;19.656;2023-01-28T05:55:50;37.65;;;22.20;;
56122;SDS011;42426;46.104;19.656;2023-01-28T05:58:19;45.83;;;22.38;;
56122;SDS011;42426;46.104;19.656;2023-01-28T06:00:45;39.85;;;22.17;;
56122;SDS011;42426;46.104;19.656;2023-01-28T06:03:11;43.75;;;24.13;;
56122;SDS011;42426;46.104;19.656;2023-01-28T06:05:37;46.75;;;25.92;;
56122;SDS011;42426;46.104;19.656;2023-01-28T06:08:03;46.50;;;25.83;;
56122;SDS011;42426;46.104;19.656;2023-01-28T06:10:30;55.22;;;28.27;;
56122;SDS011;42426;46.104;19.656;2023-01-28T06:12:56;61.55;;;30.02;;
56122;SDS011;42426;46.104;19.656;2023-01-28T06:15:21;54.72;;;28.75;;
56122;SDS011;42426;46.104;19.656;2023-01-28T06:17:48;60.85;;;29.90;;
56122;SDS011;42426;46.104;19.656;2023-01-28T06:20:14;54.47;;;28.23;;
56122;SDS011;42426;46.104;19.656;2023-01-28T06:22:41;51.42;;;27.73;;
56122;SDS011;42426;46.104;19.656;2023-01-28T06:25:07;51.28;;;27.98;;
56122;SDS011;42426;46.104;19.656;2023-01-28T06:27:33;54.03;;;27.88;;
56122;SDS011;42426;46.104;19.656;2023-01-28T06:29:59;56.05;;;28.17;;
56122;SDS011;42426;46.104;19.656;2023-01-28T06:32:25;54.30;;;25.05;;
56122;SDS011;42426;46.104;19.656;2023-01-28T06:34:51;54.42;;;26.80;;
56122;SDS011;42426;46.104;19.656;2023-01-28T06:37:17;53.65;;;26.77;;
56122;SDS011;42426;46.104;19.656;2023-01-28T06:39:43;52.63;;;25.85;;
56122;SDS011;42426;46.104;19.656;2023-01-28T06:42:09;51.78;;;25.52;;
56122;SDS011;42426;46.104;19.656;2023-01-28T06:44:34;55.70;;;28.45;;
56122;SDS011;42426;46.104;19.656;2023-01-28T06:47:00;43.97;;;24.92;;
56122;SDS011;42426;46.104;19.656;2023-01-28T06:49:26;47.97;;;25.98;;
56122;SDS011;42426;46.104;19.656;2023-01-28T06:51:51;55.60;;;25.73;;
56122;SDS011;42426;46.104;19.656;2023-01-28T06:54:17;55.13;;;28.75;;
56122;SDS011;42426;46.104;19.656;2023-01-28T06:56:43;49.60;;;28.05;;
56122;SDS011;42426;46.104;19.656;2023-01-28T06:59:08;60.28;;;33.75;;
56122;SDS011;42426;46.104;19.656;2023-01-28T07:01:34;46.25;;;29.23;;
56122;SDS011;42426;46.104;19.656;2023-01-28T07:04:00;60.58;;;30.90;;
56122;SDS011;42426;46.104;19.656;2023-01-28T07:06:25;51.15;;;28.02;;
56122;SDS011;42426;46.104;19.656;2023-01-28T07:08:51;50.83;;;27.38;;
56122;SDS011;42426;46.104;19.656;2023-01-28T07:11:17;45.72;;;26.23;;
56122;SDS011;42426;46.104;19.656;2023-01-28T07:13:42;53.42;;;27.75;;
56122;SDS011;42426;46.104;19.656;2023-01-28T07:16:09;49.10;;;26.70;;
56122;SDS011;42426;46.104;19.656;2023-01-28T07:18:34;51.13;;;27.10;;
56122;SDS011;42426;46.104;19.656;2023-01-28T07:21:00;59.50;;;28.77;;
56122;SDS011;42426;46.104;19.656;2023-01-28T07:23:26;58.55;;;28.10;;
56122;SDS011;42426;46.104;19.656;2023-01-28T07:25:51;55.42;;;26.83;;
56122;SDS011;42426;46.104;19.656;2023-01-28T07:28:17;57.20;;;29.45;;
56122;SDS011;42426;46.104;19.656;2023-01-28T07:30:51;54.10;;;28.40;;
56122;SDS011;42426;46.104;19.656;2023-01-28T07:33:17;59.92;;;29.38;;
56122;SDS011;42426;46.104;19.656;2023-01-28T07:35:43;60.60;;;29.38;;
56122;SDS011;42426;46.104;19.656;2023-01-28T07:38:11;58.42;;;31.08;;
56122;SDS011;42426;46.104;19.656;2023-01-28T07:40:37;51.70;;;29.73;;
56122;SDS011;42426;46.104;19.656;2023-01-28T07:43:03;64.60;;;32.33;;
56122;SDS011;42426;46.104;19.656;2023-01-28T07:45:31;57.40;;;29.48;;
56122;SDS011;42426;46.104;19.656;2023-01-28T07:48:01;61.13;;;30.65;;
56122;SDS011;42426;46.104;19.656;2023-01-28T07:50:29;80.95;;;41.90;;
56122;SDS011;42426;46.104;19.656;2023-01-28T07:52:58;74.30;;;43.33;;
56122;SDS011;42426;46.104;19.656;2023-01-28T07:55:26;69.85;;;39.20;;
56122;SDS011;42426;46.104;19.656;2023-01-28T07:57:53;64.82;;;36.13;;
56122;SDS011;42426;46.104;19.656;2023-01-28T08:00:21;67.53;;;35.35;;
56122;SDS011;42426;46.104;19.656;2023-01-28T08:02:49;72.18;;;35.78;;
56122;SDS011;42426;46.104;19.656;2023-01-28T08:05:19;59.63;;;34.50;;
56122;SDS011;42426;46.104;19.656;2023-01-28T08:07:47;81.32;;;43.92;;
56122;SDS011;42426;46.104;19.656;2023-01-28T08:10:13;67.72;;;39.03;;
56122;SDS011;42426;46.104;19.656;2023-01-28T08:12:40;65.97;;;39.35;;
56122;SDS011;42426;46.104;19.656;2023-01-28T08:15:06;72.43;;;34.83;;
56122;SDS011;42426;46.104;19.656;2023-01-28T08:17:32;64.88;;;36.00;;
56122;SDS011;42426;46.104;19.656;2023-01-28T08:19:58;65.47;;;35.05;;
56122;SDS011;42426;46.104;19.656;2023-01-28T08:22:26;62.60;;;33.75;;
56122;SDS011;42426;46.104;19.656;2023-01-28T08:24:52;63.75;;;36.67;;
56122;SDS011;42426;46.104;19.656;2023-01-28T08:27:18;64.82;;;34.55;;
56122;SDS011;42426;46.104;19.656;2023-01-28T08:29:44;69.95;;;36.88;;
56122;SDS011;42426;46.104;19.656;2023-01-28T08:32:09;68.97;;;36.75;;
56122;SDS011;42426;46.104;19.656;2023-01-28T08:34:35;65.70;;;32.75;;
56122;SDS011;42426;46.104;19.656;2023-01-28T08:37:01;63.10;;;32.53;;
56122;SDS011;42426;46.104;19.656;2023-01-28T08:39:27;68.47;;;32.10;;
56122;SDS011;42426;46.104;19.656;2023-01-28T08:41:52;63.60;;;31.70;;
56122;SDS011;42426;46.104;19.656;2023-01-28T08:44:18;67.03;;;32.50;;
56122;SDS011;42426;46.104;19.656;2023-01-28T08:46:44;56.38;;;30.77;;
56122;SDS011;42426;46.104;19.656;2023-01-28T08:49:09;62.25;;;31.35;;
56122;SDS011;42426;46.104;19.656;2023-01-28T08:51:35;62.40;;;35.40;;
56122;SDS011;42426;46.104;19.656;2023-01-28T08:54:01;72.00;;;38.70;;
56122;SDS011;42426;46.104;19.656;2023-01-28T08:56:26;62.47;;;33.53;;
56122;SDS011;42426;46.104;19.656;2023-01-28T08:58:52;67.07;;;33.88;;
56122;SDS011;42426;46.104;19.656;2023-01-28T09:01:18;60.85;;;34.03;;
56122;SDS011;42426;46.104;19.656;2023-01-28T09:03:44;57.25;;;29.65;;
56122;SDS011;42426;46.104;19.656;2023-01-28T09:06:09;56.83;;;31.60;;
56122;SDS011;42426;46.104;19.656;2023-01-28T09:08:35;54.05;;;28.98;;
56122;SDS011;42426;46.104;19.656;2023-01-28T09:11:01;56.80;;;28.60;;
56122;SDS011;42426;46.104;19.656;2023-01-28T09:13:27;51.60;;;27.77;;
56122;SDS011;42426;46.104;19.656;2023-01-28T09:15:54;64.55;;;32.78;;
56122;SDS011;42426;46.104;19.656;2023-01-28T09:18:20;67.93;;;34.53;;
56122;SDS011;42426;46.104;19.656;2023-01-28T09:20:46;63.88;;;35.15;;
56122;SDS011;42426;46.104;19.656;2023-01-28T09:23:12;74.55;;;37.72;;
56122;SDS011;42426;46.104;19.656;2023-01-28T09:25:38;54.88;;;28.02;;
56122;SDS011;42426;46.104;19.656;2023-01-28T09:28:04;62.38;;;33.72;;
56122;SDS011;42426;46.104;19.656;2023-01-28T09:30:30;64.82;;;29.45;;
56122;SDS011;42426;46.104;19.656;2023-01-28T09:32:55;57.05;;;29.85;;
56122;SDS011;42426;46.104;19.656;2023-01-28T09:35:23;56.33;;;29.35;;
56122;SDS011;42426;46.104;19.656;2023-01-28T09:37:49;52.47;;;28.70;;
56122;SDS011;42426;46.104;19.656;2023-01-28T09:40:16;53.38;;;27.95;;
56122;SDS011;42426;46.104;19.656;2023-01-28T09:45:21;54.53;;;29.27;;
56122;SDS011;42426;46.104;19.656;2023-01-28T09:51:18;53.65;;;28.50;;
56122;SDS011;42426;46.104;19.656;2023-01-28T09:53:52;49.15;;;25.80;;
56122;SDS011;42426;46.104;19.656;2023-01-28T09:56:26;60.42;;;28.67;;
56122;SDS011;42426;46.104;19.656;2023-01-28T09:58:56;53.58;;;29.20;;
56122;SDS011;42426;46.104;19.656;2023-01-28T10:18:10;57.97;;;30.55;;
56122;SDS011;42426;46.104;19.656;2023-01-28T10:20:39;52.95;;;31.52;;
56122;SDS011;42426;46.104;19.656;2023-01-28T10:23:19;53.50;;;30.13;;
56122;SDS011;42426;46.104;19.656;2023-01-28T10:26:02;54.22;;;28.35;;
56122;SDS011;42426;46.104;19.656;2023-01-28T10:28:33;51.92;;;27.75;;
56122;SDS011;42426;46.104;19.656;2023-01-28T10:31:00;51.22;;;29.05;;
56122;SDS011;42426;46.104;19.656;2023-01-28T10:35:52;55.65;;;30.90;;
56122;SDS011;42426;46.104;19.656;2023-01-28T10:38:20;53.33;;;27.55;;
56122;SDS011;42426;46.104;19.656;2023-01-28T10:40:48;48.63;;;27.02;;
56122;SDS011;42426;46.104;19.656;2023-01-28T10:43:22;58.15;;;28.77;;
56122;SDS011;42426;46.104;19.656;2023-01-28T10:46:00;53.80;;;27.10;;
56122;SDS011;42426;46.104;19.656;2023-01-28T10:48:37;55.85;;;29.83;;
56122;SDS011;42426;46.104;19.656;2023-01-28T10:53:53;51.38;;;26.75;;
56122;SDS011;42426;46.104;19.656;2023-01-28T10:56:27;52.13;;;28.65;;
56122;SDS011;42426;46.104;19.656;2023-01-28T10:59:06;50.15;;;26.42;;
56122;SDS011;42426;46.104;19.656;2023-01-28T11:04:19;54.05;;;26.70;;
56122;SDS011;42426;46.104;19.656;2023-01-28T11:06:56;48.47;;;26.60;;
56122;SDS011;42426;46.104;19.656;2023-01-28T11:09:25;51.33;;;24.65;;
56122;SDS011;42426;46.104;19.656;2023-01-28T11:15:00;60.28;;;31.52;;
56122;SDS011;42426;46.104;19.656;2023-01-28T11:17:28;54.15;;;29.27;;
56122;SDS011;42426;46.104;19.656;2023-01-28T11:20:09;57.50;;;30.50;;
56122;SDS011;42426;46.104;19.656;2023-01-28T11:22:38;57.67;;;29.05;;
56122;SDS011;42426;46.104;19.656;2023-01-28T11:27:56;59.83;;;29.65;;
56122;SDS011;42426;46.104;19.656;2023-01-28T11:30:26;50.35;;;25.13;;
56122;SDS011;42426;46.104;19.656;2023-01-28T11:35:25;55.95;;;30.08;;
56122;SDS011;42426;46.104;19.656;2023-01-28T11:37:54;55.70;;;26.13;;
56122;SDS011;42426;46.104;19.656;2023-01-28T11:40:21;46.20;;;27.33;;
56122;SDS011;42426;46.104;19.656;2023-01-28T11:42:47;51.90;;;27.73;;
56122;SDS011;42426;46.104;19.656;2023-01-28T11:45:16;48.95;;;31.75;;
56122;SDS011;42426;46.104;19.656;2023-01-28T11:50:37;48.15;;;27.88;;
56122;SDS011;42426;46.104;19.656;2023-01-28T12:07:39;46.10;;;26.05;;
56122;SDS011;42426;46.104;19.656;2023-01-28T12:21:05;60.90;;;31.80;;
56122;SDS011;42426;46.104;19.656;2023-01-28T12:26:08;67.93;;;33.88;;
56122;SDS011;42426;46.104;19.656;2023-01-28T12:39:44;57.05;;;27.63;;
56122;SDS011;42426;46.104;19.656;2023-01-28T12:48:00;59.58;;;30.02;;
56122;SDS011;42426;46.104;19.656;2023-01-28T12:50:44;56.85;;;27.42;;
56122;SDS011;42426;46.104;19.656;2023-01-28T12:53:22;61.42;;;33.40;;
56122;SDS011;42426;46.104;19.656;2023-01-28T12:55:57;62.22;;;31.23;;
56122;SDS011;42426;46.104;19.656;2023-01-28T13:01:17;57.35;;;29.80;;
56122;SDS011;42426;46.104;19.656;2023-01-28T13:03:48;54.70;;;30.80;;
56122;SDS011;42426;46.104;19.656;2023-01-28T13:06:34;56.28;;;28.15;;
56122;SDS011;42426;46.104;19.656;2023-01-28T13:09:10;62.28;;;33.60;;
56122;SDS011;42426;46.104;19.656;2023-01-28T13:11:43;58.08;;;31.17;;
56122;SDS011;42426;46.104;19.656;2023-01-28T13:14:11;59.63;;;31.42;;
56122;SDS011;42426;46.104;19.656;2023-01-28T13:16:38;60.88;;;31.60;;
56122;SDS011;42426;46.104;19.656;2023-01-28T13:19:22;65.28;;;36.65;;
56122;SDS011;42426;46.104;19.656;2023-01-28T13:22:08;66.30;;;35.13;;
56122;SDS011;42426;46.104;19.656;2023-01-28T13:24:48;55.42;;;31.15;;
56122;SDS011;42426;46.104;19.656;2023-01-28T13:27:20;56.35;;;32.08;;
56122;SDS011;42426;46.104;19.656;2023-01-28T13:29:58;64.22;;;38.90;;
56122;SDS011;42426;46.104;19.656;2023-01-28T13:32:27;68.20;;;36.38;;
56122;SDS011;42426;46.104;19.656;2023-01-28T13:35:04;54.30;;;28.65;;
56122;SDS011;42426;46.104;19.656;2023-01-28T13:37:33;73.63;;;38.00;;
56122;SDS011;42426;46.104;19.656;2023-01-28T13:42:42;57.72;;;31.90;;
56122;SDS011;42426;46.104;19.656;2023-01-28T13:47:42;49.33;;;28.00;;
56122;SDS011;42426;46.104;19.656;2023-01-28T13:50:14;56.83;;;29.83;;
56122;SDS011;42426;46.104;19.656;2023-01-28T13:55:33;56.67;;;29.48;;
56122;SDS011;42426;46.104;19.656;2023-01-28T14:07:02;61.50;;;31.80;;
56122;SDS011;42426;46.104;19.656;2023-01-28T14:17:43;66.53;;;34.45;;
56122;SDS011;42426;46.104;19.656;2023-01-28T14:22:48;62.90;;;35.88;;
56122;SDS011;42426;46.104;19.656;2023-01-28T14:25:19;70.85;;;37.05;;
56122;SDS011;42426;46.104;19.656;2023-01-28T14:28:16;65.68;;;33.63;;
56122;SDS011;42426;46.104;19.656;2023-01-28T14:30:53;63.95;;;33.90;;
56122;SDS011;42426;46.104;19.656;2023-01-28T14:33:24;61.88;;;34.45;;
56122;SDS011;42426;46.104;19.656;2023-01-28T14:35:50;52.67;;;28.05;;
56122;SDS011;42426;46.104;19.656;2023-01-28T14:38:19;54.92;;;31.40;;
56122;SDS011;42426;46.104;19.656;2023-01-28T14:40:53;63.90;;;31.30;;
56122;SDS011;42426;46.104;19.656;2023-01-28T14:43:22;59.45;;;30.40;;
56122;SDS011;42426;46.104;19.656;2023-01-28T14:46:10;60.00;;;30.42;;
56122;SDS011;42426;46.104;19.656;2023-01-28T14:51:52;79.47;;;41.90;;
56122;SDS011;42426;46.104;19.656;2023-01-28T14:54:28;72.45;;;37.05;;
56122;SDS011;42426;46.104;19.656;2023-01-28T14:59:51;66.68;;;36.15;;
56122;SDS011;42426;46.104;19.656;2023-01-28T15:02:26;66.40;;;34.97;;
56122;SDS011;42426;46.104;19.656;2023-01-28T15:04:53;62.58;;;33.47;;
56122;SDS011;42426;46.104;19.656;2023-01-28T15:07:23;64.38;;;35.83;;
56122;SDS011;42426;46.104;19.656;2023-01-28T15:12:28;62.13;;;31.95;;
56122;SDS011;42426;46.104;19.656;2023-01-28T15:14:57;62.28;;;31.35;;
56122;SDS011;42426;46.104;19.656;2023-01-28T15:17:35;62.63;;;33.47;;
56122;SDS011;42426;46.104;19.656;2023-01-28T15:20:01;65.93;;;34.80;;
56122;SDS011;42426;46.104;19.656;2023-01-28T15:22:27;74.97;;;41.53;;
56122;SDS011;42426;46.104;19.656;2023-01-28T15:24:54;66.90;;;35.65;;
56122;SDS011;42426;46.104;19.656;2023-01-28T15:27:26;83.88;;;43.63;;
56122;SDS011;42426;46.104;19.656;2023-01-28T15:29:56;67.93;;;37.45;;
56122;SDS011;42426;46.104;19.656;2023-01-28T15:32:24;59.67;;;35.33;;
56122;SDS011;42426;46.104;19.656;2023-01-28T15:34:55;64.97;;;33.45;;
56122;SDS011;42426;46.104;19.656;2023-01-28T15:37:24;64.63;;;36.35;;
56122;SDS011;42426;46.104;19.656;2023-01-28T15:39:59;112.05;;;59.13;;
56122;SDS011;42426;46.104;19.656;2023-01-28T15:42:32;148.63;;;73.45;;
56122;SDS011;42426;46.104;19.656;2023-01-28T15:44:59;125.68;;;63.60;;
56122;SDS011;42426;46.104;19.656;2023-01-28T15:47:26;127.13;;;65.57;;
56122;SDS011;42426;46.104;19.656;2023-01-28T15:49:53;99.50;;;48.00;;
56122;SDS011;42426;46.104;19.656;2023-01-28T15:52:21;94.22;;;48.45;;
56122;SDS011;42426;46.104;19.656;2023-01-28T15:55:30;60.85;;;33.15;;
56122;SDS011;42426;46.104;19.656;2023-01-28T15:58:27;77.40;;;45.65;;
56122;SDS011;42426;46.104;19.656;2023-01-28T16:03:33;94.45;;;49.03;;
56122;SDS011;42426;46.104;19.656;2023-01-28T16:06:11;90.03;;;48.38;;
56122;SDS011;42426;46.104;19.656;2023-01-28T16:08:56;70.82;;;37.42;;
56122;SDS011;42426;46.104;19.656;2023-01-28T16:11:29;67.85;;;35.97;;
56122;SDS011;42426;46.104;19.656;2023-01-28T16:14:01;70.13;;;37.80;;
56122;SDS011;42426;46.104;19.656;2023-01-28T16:16:36;75.07;;;41.97;;
56122;SDS011;42426;46.104;19.656;2023-01-28T16:19:05;75.22;;;38.53;;
56122;SDS011;42426;46.104;19.656;2023-01-28T16:21:36;69.10;;;37.72;;
56122;SDS011;42426;46.104;19.656;2023-01-28T16:24:26;66.45;;;34.05;;
56122;SDS011;42426;46.104;19.656;2023-01-28T16:26:58;88.93;;;44.88;;
56122;SDS011;42426;46.104;19.656;2023-01-28T16:29:26;69.65;;;35.55;;
56122;SDS011;42426;46.104;19.656;2023-01-28T16:31:53;54.55;;;31.95;;
56122;SDS011;42426;46.104;19.656;2023-01-28T16:34:20;73.97;;;36.97;;
56122;SDS011;42426;46.104;19.656;2023-01-28T16:36:46;88.78;;;51.63;;
56122;SDS011;42426;46.104;19.656;2023-01-28T16:39:12;93.38;;;50.38;;
56122;SDS011;42426;46.104;19.656;2023-01-28T16:41:42;80.28;;;42.33;;
56122;SDS011;42426;46.104;19.656;2023-01-28T16:44:13;74.93;;;42.75;;
56122;SDS011;42426;46.104;19.656;2023-01-28T16:46:40;62.97;;;32.72;;
56122;SDS011;42426;46.104;19.656;2023-01-28T16:49:06;71.75;;;35.45;;
56122;SDS011;42426;46.104;19.656;2023-01-28T16:51:32;69.88;;;35.85;;
56122;SDS011;42426;46.104;19.656;2023-01-28T16:53:59;76.65;;;37.10;;
56122;SDS011;42426;46.104;19.656;2023-01-28T16:56:26;73.13;;;37.22;;